sensor_id;sensor_type;location;lat;lon;timestamp;pressure;altitude;pressure_sealevel;temperature;humidity
13241;BME280;6687;47.790;7.322;2023-02-15T06:11:37;100325.72;;;1.92;99.79
13241;BME280;6687;47.790;7.322;2023-02-15T06:14:04;100327.66;;;1.96;98.78
13241;BME280;6687;47.790;7.322;2023-02-15T06:16:31;100329.06;;;2.21;97.92
13241;BME280;6687;47.790;7.322;2023-02-15T06:18:57;100325.88;;;2.25;96.80
13241;BME280;6687;47.790;7.322;2023-02-15T06:21:26;100324.72;;;2.05;97.36
13241;BME280;6687;47.790;7.322;2023-02-15T06:23:53;100333.81;;;2.14;96.98
13241;BME280;6687;47.790;7.322;2023-02-15T06:26:20;100330.91;;;2.08;96.81
13241;BME280;6687;47.790;7.322;2023-02-15T06:28:48;100340.06;;;1.90;96.98
13241;BME280;6687;47.790;7.322;2023-02-15T06:31:15;100341.22;;;2.10;97.10
13241;BME280;6687;47.790;7.322;2023-02-15T06:33:41;100350.91;;;1.86;96.90
13241;BME280;6687;47.790;7.322;2023-02-15T06:36:08;100344.63;;;1.81;97.15
13241;BME280;6687;47.790;7.322;2023-02-15T06:38:35;100340.69;;;1.86;96.65
13241;BME280;6687;47.790;7.322;2023-02-15T06:41:02;100342.56;;;2.03;96.01
13241;BME280;6687;47.790;7.322;2023-02-15T06:43:29;100346.34;;;2.10;95.65
13241;BME280;6687;47.790;7.322;2023-02-15T06:45:57;100337.88;;;1.96;95.49
13241;BME280;6687;47.790;7.322;2023-02-15T06:48:24;100348.28;;;1.99;95.15
13241;BME280;6687;47.790;7.322;2023-02-15T06:50:51;100344.56;;;1.94;95.48
13241;BME280;6687;47.790;7.322;2023-02-15T06:53:18;100335.72;;;1.89;95.28
13241;BME280;6687;47.790;7.322;2023-02-15T06:55:44;100345.25;;;1.76;96.13
13241;BME280;6687;47.790;7.322;2023-02-15T06:58:11;100340.69;;;1.86;96.23
13241;BME280;6687;47.790;7.322;2023-02-15T07:00:38;100344.88;;;1.70;96.40
13241;BME280;6687;47.790;7.322;2023-02-15T07:03:06;100342.81;;;2.23;95.37
13241;BME280;6687;47.790;7.322;2023-02-15T07:05:34;100340.56;;;2.58;93.31
13241;BME280;6687;47.790;7.322;2023-02-15T07:08:01;100347.22;;;2.10;94.46
13241;BME280;6687;47.790;7.322;2023-02-15T07:10:28;100348.03;;;2.39;93.45
13241;BME280;6687;47.790;7.322;2023-02-15T07:12:54;100348.81;;;2.08;94.23
13241;BME280;6687;47.790;7.322;2023-02-15T07:15:21;100349.50;;;2.21;93.84
13241;BME280;6687;47.790;7.322;2023-02-15T07:17:47;100341.84;;;2.21;93.88
13241;BME280;6687;47.790;7.322;2023-02-15T07:20:18;100338.00;;;2.73;93.45
13241;BME280;6687;47.790;7.322;2023-02-15T07:22:45;100338.13;;;2.91;93.98
13241;BME280;6687;47.790;7.322;2023-02-15T07:25:12;100335.06;;;2.36;93.10
13241;BME280;6687;47.790;7.322;2023-02-15T07:27:40;100330.94;;;2.69;93.13
13241;BME280;6687;47.790;7.322;2023-02-15T07:30:09;100326.69;;;2.85;92.75
13241;BME280;6687;47.790;7.322;2023-02-15T07:32:36;100334.22;;;2.98;93.39
13241;BME280;6687;47.790;7.322;2023-02-15T07:35:24;100330.88;;;2.99;92.82
13241;BME280;6687;47.790;7.322;2023-02-15T07:37:51;100340.25;;;2.98;92.47
13241;BME280;6687;47.790;7.322;2023-02-15T07:40:18;100334.88;;;2.33;93.51
13241;BME280;6687;47.790;7.322;2023-02-15T07:42:47;100327.22;;;2.79;93.14
13241;BME280;6687;47.790;7.322;2023-02-15T07:45:14;100335.72;;;2.48;92.89
13241;BME280;6687;47.790;7.322;2023-02-15T07:47:41;100339.78;;;2.59;92.72
13241;BME280;6687;47.790;7.322;2023-02-15T07:50:08;100342.63;;;2.34;93.00
13241;BME280;6687;47.790;7.322;2023-02-15T07:52:36;100330.63;;;2.63;92.61
13241;BME280;6687;47.790;7.322;2023-02-15T07:55:03;100333.97;;;2.93;91.66
13241;BME280;6687;47.790;7.322;2023-02-15T07:57:30;100333.47;;;2.53;91.62
13241;BME280;6687;47.790;7.322;2023-02-15T07:59:57;100339.59;;;2.71;91.52
13241;BME280;6687;47.790;7.322;2023-02-15T08:02:23;100336.94;;;2.70;91.26
13241;BME280;6687;47.790;7.322;2023-02-15T08:04:50;100330.97;;;2.54;91.33
13241;BME280;6687;47.790;7.322;2023-02-15T08:07:17;100332.97;;;2.75;90.79
13241;BME280;6687;47.790;7.322;2023-02-15T08:09:45;100334.16;;;2.50;91.62
13241;BME280;6687;47.790;7.322;2023-02-15T08:12:12;100328.16;;;2.65;91.10
13241;BME280;6687;47.790;7.322;2023-02-15T08:14:38;100318.69;;;2.64;91.01
13241;BME280;6687;47.790;7.322;2023-02-15T08:17:05;100320.38;;;2.63;90.64
13241;BME280;6687;47.790;7.322;2023-02-15T08:19:33;100317.28;;;2.69;90.50
13241;BME280;6687;47.790;7.322;2023-02-15T08:22:01;100318.78;;;2.50;90.91
13241;BME280;6687;47.790;7.322;2023-02-15T08:24:30;100314.28;;;2.92;91.10
13241;BME280;6687;47.790;7.322;2023-02-15T08:26:59;100314.78;;;3.02;90.09
13241;BME280;6687;47.790;7.322;2023-02-15T08:29:29;100324.78;;;2.66;90.99
13241;BME280;6687;47.790;7.322;2023-02-15T08:31:58;100317.78;;;2.78;90.49
13241;BME280;6687;47.790;7.322;2023-02-15T08:34:28;100318.50;;;3.07;90.11
13241;BME280;6687;47.790;7.322;2023-02-15T08:36:55;100315.38;;;3.29;88.88
13241;BME280;6687;47.790;7.322;2023-02-15T08:39:22;100323.94;;;3.13;88.49
13241;BME280;6687;47.790;7.322;2023-02-15T08:41:49;100316.81;;;2.76;88.73
13241;BME280;6687;47.790;7.322;2023-02-15T08:44:18;100317.09;;;2.97;88.89
13241;BME280;6687;47.790;7.322;2023-02-15T08:46:46;100311.88;;;3.27;88.50
13241;BME280;6687;47.790;7.322;2023-02-15T08:49:16;100311.53;;;3.21;88.52
13241;BME280;6687;47.790;7.322;2023-02-15T08:51:43;100303.00;;;3.36;87.38
13241;BME280;6687;47.790;7.322;2023-02-15T08:54:13;100311.22;;;3.47;87.04
13241;BME280;6687;47.790;7.322;2023-02-15T08:56:42;100305.28;;;3.15;87.58
13241;BME280;6687;47.790;7.322;2023-02-15T08:59:12;100304.91;;;3.41;86.09
13241;BME280;6687;47.790;7.322;2023-02-15T09:01:41;100314.19;;;3.55;86.38
13241;BME280;6687;47.790;7.322;2023-02-15T09:04:08;100307.13;;;3.51;85.84
13241;BME280;6687;47.790;7.322;2023-02-15T09:06:36;100308.59;;;3.96;84.51
13241;BME280;6687;47.790;7.322;2023-02-15T09:09:03;100308.22;;;3.89;84.35
13241;BME280;6687;47.790;7.322;2023-02-15T09:11:33;100303.53;;;4.32;84.23
13241;BME280;6687;47.790;7.322;2023-02-15T09:14:02;100306.13;;;3.98;84.14
13241;BME280;6687;47.790;7.322;2023-02-15T09:16:31;100299.56;;;4.39;84.64
13241;BME280;6687;47.790;7.322;2023-02-15T09:19:00;100295.50;;;4.08;84.14
13241;BME280;6687;47.790;7.322;2023-02-15T09:21:30;100295.13;;;4.01;83.32
13241;BME280;6687;47.790;7.322;2023-02-15T09:23:59;100297.56;;;4.15;82.88
13241;BME280;6687;47.790;7.322;2023-02-15T09:26:27;100291.34;;;4.46;81.99
13241;BME280;6687;47.790;7.322;2023-02-15T09:28:56;100290.97;;;4.21;81.41
13241;BME280;6687;47.790;7.322;2023-02-15T09:31:24;100294.72;;;4.45;81.12
13241;BME280;6687;47.790;7.322;2023-02-15T09:33:52;100288.13;;;4.68;80.24
13241;BME280;6687;47.790;7.322;2023-02-15T09:36:22;100286.63;;;4.73;79.25
13241;BME280;6687;47.790;7.322;2023-02-15T09:38:54;100286.75;;;4.94;79.90
13241;BME280;6687;47.790;7.322;2023-02-15T09:41:33;100283.59;;;5.00;79.68
13241;BME280;6687;47.790;7.322;2023-02-15T09:44:11;100284.84;;;4.90;78.30
13241;BME280;6687;47.790;7.322;2023-02-15T09:46:54;100283.94;;;5.08;78.17
13241;BME280;6687;47.790;7.322;2023-02-15T09:49:27;100286.75;;;4.94;78.09
13241;BME280;6687;47.790;7.322;2023-02-15T09:52:22;100287.66;;;4.77;78.31
13241;BME280;6687;47.790;7.322;2023-02-15T09:55:15;100288.94;;;5.05;77.78
13241;BME280;6687;47.790;7.322;2023-02-15T09:57:52;100285.41;;;5.03;77.55
13241;BME280;6687;47.790;7.322;2023-02-15T10:00:27;100284.34;;;5.36;76.87
13241;BME280;6687;47.790;7.322;2023-02-15T10:03:10;100280.28;;;5.22;76.85
13241;BME280;6687;47.790;7.322;2023-02-15T10:05:49;100279.81;;;5.31;76.65
13241;BME280;6687;47.790;7.322;2023-02-15T10:08:36;100280.38;;;5.24;77.47
13241;BME280;6687;47.790;7.322;2023-02-15T10:11:13;100277.84;;;5.64;77.05
13241;BME280;6687;47.790;7.322;2023-02-15T10:14:06;100277.72;;;5.61;76.83
13241;BME280;6687;47.790;7.322;2023-02-15T10:16:45;100270.28;;;5.48;76.61
13241;BME280;6687;47.790;7.322;2023-02-15T10:19:22;100269.53;;;5.50;77.09
13241;BME280;6687;47.790;7.322;2023-02-15T10:21:59;100270.41;;;5.12;77.37
13241;BME280;6687;47.790;7.322;2023-02-15T10:24:51;100265.28;;;5.12;77.93
13241;BME280;6687;47.790;7.322;2023-02-15T10:27:23;100264.41;;;5.11;78.70
13241;BME280;6687;47.790;7.322;2023-02-15T10:29:58;100262.44;;;4.68;80.30
13241;BME280;6687;47.790;7.322;2023-02-15T10:32:32;100269.75;;;5.35;78.82
13241;BME280;6687;47.790;7.322;2023-02-15T10:35:09;100265.81;;;5.24;78.79
13241;BME280;6687;47.790;7.322;2023-02-15T10:38:00;100256.44;;;4.68;79.32
13241;BME280;6687;47.790;7.322;2023-02-15T10:40:37;100261.88;;;5.13;79.43
13241;BME280;6687;47.790;7.322;2023-02-15T10:43:23;100250.75;;;5.51;78.18
13241;BME280;6687;47.790;7.322;2023-02-15T10:45:57;100254.59;;;5.03;78.90
13241;BME280;6687;47.790;7.322;2023-02-15T10:51:40;100241.16;;;5.28;79.60
13241;BME280;6687;47.790;7.322;2023-02-15T10:54:19;100239.03;;;5.38;79.76
13241;BME280;6687;47.790;7.322;2023-02-15T10:57:01;100233.06;;;5.59;81.21
13241;BME280;6687;47.790;7.322;2023-02-15T10:59:42;100237.28;;;5.18;80.97
13241;BME280;6687;47.790;7.322;2023-02-15T11:02:21;100226.44;;;5.45;80.49
13241;BME280;6687;47.790;7.322;2023-02-15T11:05:02;100226.25;;;5.40;80.27
13241;BME280;6687;47.790;7.322;2023-02-15T11:07:38;100224.91;;;5.29;82.23
13241;BME280;6687;47.790;7.322;2023-02-15T11:10:14;100222.25;;;5.47;81.59
13241;BME280;6687;47.790;7.322;2023-02-15T11:12:50;100212.13;;;5.11;82.68
13241;BME280;6687;47.790;7.322;2023-02-15T11:15:20;100208.63;;;5.28;82.96
13241;BME280;6687;47.790;7.322;2023-02-15T11:17:53;100211.25;;;5.10;83.04
13241;BME280;6687;47.790;7.322;2023-02-15T11:20:25;100203.75;;;5.15;83.44
13241;BME280;6687;47.790;7.322;2023-02-15T11:22:54;100189.66;;;5.46;82.97
13241;BME280;6687;47.790;7.322;2023-02-15T11:25:25;100189.41;;;5.40;82.93
13241;BME280;6687;47.790;7.322;2023-02-15T11:27:56;100177.13;;;5.74;82.76
13241;BME280;6687;47.790;7.322;2023-02-15T11:30:25;100175.50;;;5.76;82.83
13241;BME280;6687;47.790;7.322;2023-02-15T11:32:56;100175.13;;;5.46;83.38
13241;BME280;6687;47.790;7.322;2023-02-15T11:35:30;100169.34;;;5.52;84.19
13241;BME280;6687;47.790;7.322;2023-02-15T11:38:04;100169.63;;;5.79;83.21
13241;BME280;6687;47.790;7.322;2023-02-15T11:40:35;100158.94;;;5.91;83.15
13241;BME280;6687;47.790;7.322;2023-02-15T11:43:06;100163.19;;;5.90;82.71
13241;BME280;6687;47.790;7.322;2023-02-15T11:45:40;100156.47;;;5.94;82.23
13241;BME280;6687;47.790;7.322;2023-02-15T11:48:10;100151.53;;;5.98;82.09
13241;BME280;6687;47.790;7.322;2023-02-15T11:50:37;100150.56;;;5.95;82.37
13241;BME280;6687;47.790;7.322;2023-02-15T11:53:09;100152.19;;;5.93;82.28
13241;BME280;6687;47.790;7.322;2023-02-15T11:55:36;100143.25;;;6.06;82.30
13241;BME280;6687;47.790;7.322;2023-02-15T11:58:09;100139.81;;;6.28;82.30
13241;BME280;6687;47.790;7.322;2023-02-15T12:00:42;100137.13;;;6.02;82.65
13241;BME280;6687;47.790;7.322;2023-02-15T12:03:14;100130.22;;;6.01;82.39
13241;BME280;6687;47.790;7.322;2023-02-15T12:05:45;100124.94;;;6.21;81.81
13241;BME280;6687;47.790;7.322;2023-02-15T12:08:17;100119.91;;;6.46;81.98
13241;BME280;6687;47.790;7.322;2023-02-15T12:10:57;100115.53;;;6.44;82.03
13241;BME280;6687;47.790;7.322;2023-02-15T12:13:26;100113.03;;;6.45;81.90
13241;BME280;6687;47.790;7.322;2023-02-15T12:15:56;100116.03;;;6.57;82.23
13241;BME280;6687;47.790;7.322;2023-02-15T12:18:42;100101.19;;;6.50;82.83
13241;BME280;6687;47.790;7.322;2023-02-15T12:21:12;100112.47;;;6.54;82.60
13241;BME280;6687;47.790;7.322;2023-02-15T12:23:46;100107.38;;;6.55;81.69
13241;BME280;6687;47.790;7.322;2023-02-15T12:26:14;100097.81;;;6.75;81.51
13241;BME280;6687;47.790;7.322;2023-02-15T12:28:44;100096.50;;;6.63;81.46
13241;BME280;6687;47.790;7.322;2023-02-15T12:31:20;100089.03;;;6.70;80.96
13241;BME280;6687;47.790;7.322;2023-02-15T12:33:51;100088.91;;;6.91;80.48
13241;BME280;6687;47.790;7.322;2023-02-15T12:36:20;100088.91;;;6.91;81.15
13241;BME280;6687;47.790;7.322;2023-02-15T12:39:03;100079.75;;;7.00;81.11
13241;BME280;6687;47.790;7.322;2023-02-15T12:41:31;100085.09;;;7.06;81.21
13241;BME280;6687;47.790;7.322;2023-02-15T12:44:15;100079.34;;;7.13;80.82
13241;BME280;6687;47.790;7.322;2023-02-15T12:46:55;100075.94;;;7.14;79.97
13241;BME280;6687;47.790;7.322;2023-02-15T12:49:23;100078.63;;;7.17;78.86
13241;BME280;6687;47.790;7.322;2023-02-15T12:51:51;100069.91;;;7.13;78.77
13241;BME280;6687;47.790;7.322;2023-02-15T12:54:38;100066.78;;;7.49;80.36
13241;BME280;6687;47.790;7.322;2023-02-15T12:57:23;100064.63;;;7.63;83.24
13241;BME280;6687;47.790;7.322;2023-02-15T12:59:54;100060.22;;;7.59;83.20
13241;BME280;6687;47.790;7.322;2023-02-15T13:02:27;100056.91;;;7.63;82.52
13241;BME280;6687;47.790;7.322;2023-02-15T13:04:56;100054.56;;;7.71;82.66
13241;BME280;6687;47.790;7.322;2023-02-15T13:07:29;100051.06;;;7.69;79.64
13241;BME280;6687;47.790;7.322;2023-02-15T13:09:58;100040.31;;;7.84;84.03
13241;BME280;6687;47.790;7.322;2023-02-15T13:12:27;100046.97;;;8.04;88.61
13241;BME280;6687;47.790;7.322;2023-02-15T13:14:58;100043.47;;;7.73;79.91
13241;BME280;6687;47.790;7.322;2023-02-15T13:17:30;100036.44;;;7.96;74.56
13241;BME280;6687;47.790;7.322;2023-02-15T13:20:05;100035.72;;;8.02;76.23
13241;BME280;6687;47.790;7.322;2023-02-15T13:22:38;100031.28;;;8.27;86.30
13241;BME280;6687;47.790;7.322;2023-02-15T13:25:12;100019.00;;;8.18;83.54
13241;BME280;6687;47.790;7.322;2023-02-15T13:27:42;100021.50;;;8.16;80.91
13241;BME280;6687;47.790;7.322;2023-02-15T13:30:21;100013.66;;;8.12;77.38
13241;BME280;6687;47.790;7.322;2023-02-15T13:32:52;100008.25;;;8.34;75.37
13241;BME280;6687;47.790;7.322;2023-02-15T13:35:21;100006.69;;;8.40;78.29
13241;BME280;6687;47.790;7.322;2023-02-15T13:38:06;100005.59;;;8.62;85.70
13241;BME280;6687;47.790;7.322;2023-02-15T13:40:42;100001.06;;;8.54;85.82
13241;BME280;6687;47.790;7.322;2023-02-15T13:43:20;99999.41;;;8.56;79.85
13241;BME280;6687;47.790;7.322;2023-02-15T13:46:00;99990.75;;;8.54;78.60
13241;BME280;6687;47.790;7.322;2023-02-15T13:48:39;99984.06;;;8.63;78.80
13241;BME280;6687;47.790;7.322;2023-02-15T13:51:14;99985.91;;;8.67;76.27
13241;BME280;6687;47.790;7.322;2023-02-15T13:56:41;99981.88;;;8.78;75.80
13241;BME280;6687;47.790;7.322;2023-02-15T13:59:27;99989.69;;;8.81;72.78
13241;BME280;6687;47.790;7.322;2023-02-15T14:02:19;99990.91;;;8.94;70.54
13241;BME280;6687;47.790;7.322;2023-02-15T14:05:09;99977.38;;;9.04;72.42
13241;BME280;6687;47.790;7.322;2023-02-15T14:07:52;99977.47;;;9.09;73.06
13241;BME280;6687;47.790;7.322;2023-02-15T14:10:34;99981.66;;;9.04;71.67
13241;BME280;6687;47.790;7.322;2023-02-15T14:13:25;99981.88;;;9.13;72.95
13241;BME280;6687;47.790;7.322;2023-02-15T14:16:01;99981.19;;;9.20;75.23
13241;BME280;6687;47.790;7.322;2023-02-15T14:18:36;99982.97;;;9.21;73.57
13241;BME280;6687;47.790;7.322;2023-02-15T14:21:10;99978.06;;;9.33;69.00
13241;BME280;6687;47.790;7.322;2023-02-15T14:23:46;99976.53;;;9.42;71.42
13241;BME280;6687;47.790;7.322;2023-02-15T14:26:23;99975.66;;;9.43;70.01
13241;BME280;6687;47.790;7.322;2023-02-15T14:28:59;99974.22;;;9.54;75.72
13241;BME280;6687;47.790;7.322;2023-02-15T14:31:32;99973.47;;;9.60;69.74
13241;BME280;6687;47.790;7.322;2023-02-15T14:34:01;99976.84;;;9.55;68.72
13241;BME280;6687;47.790;7.322;2023-02-15T14:36:30;99972.66;;;9.62;71.15
13241;BME280;6687;47.790;7.322;2023-02-15T14:39:06;99973.81;;;9.75;67.49
13241;BME280;6687;47.790;7.322;2023-02-15T14:42:04;99971.25;;;9.75;67.77
13241;BME280;6687;47.790;7.322;2023-02-15T14:44:35;99969.59;;;9.80;68.48
13241;BME280;6687;47.790;7.322;2023-02-15T14:47:07;99974.97;;;9.89;66.20
13241;BME280;6687;47.790;7.322;2023-02-15T14:49:39;99974.91;;;9.85;67.91
13241;BME280;6687;47.790;7.322;2023-02-15T14:52:07;99973.22;;;9.87;68.31
13241;BME280;6687;47.790;7.322;2023-02-15T14:54:57;99969.97;;;9.99;68.93
13241;BME280;6687;47.790;7.322;2023-02-15T14:57:27;99977.63;;;9.91;69.15
13241;BME280;6687;47.790;7.322;2023-02-15T14:59:57;99975.28;;;10.03;66.37
13241;BME280;6687;47.790;7.322;2023-02-15T15:02:27;99970.00;;;10.00;67.22
13241;BME280;6687;47.790;7.322;2023-02-15T15:05:01;99966.66;;;10.04;67.03
13241;BME280;6687;47.790;7.322;2023-02-15T15:07:37;99968.56;;;10.14;66.37
13241;BME280;6687;47.790;7.322;2023-02-15T15:10:07;99969.50;;;10.18;67.33
13241;BME280;6687;47.790;7.322;2023-02-15T15:12:54;99972.06;;;10.16;65.96
13241;BME280;6687;47.790;7.322;2023-02-15T15:15:34;99966.22;;;10.25;64.25
13241;BME280;6687;47.790;7.322;2023-02-15T15:18:02;99965.53;;;10.34;75.15
13241;BME280;6687;47.790;7.322;2023-02-15T15:20:45;99968.97;;;10.33;67.36
13241;BME280;6687;47.790;7.322;2023-02-15T15:23:41;99965.75;;;10.46;67.13
13241;BME280;6687;47.790;7.322;2023-02-15T15:26:23;99966.50;;;10.39;69.13
13241;BME280;6687;47.790;7.322;2023-02-15T15:28:57;99978.59;;;10.40;69.80
13241;BME280;6687;47.790;7.322;2023-02-15T15:31:29;99975.97;;;10.37;70.28
13241;BME280;6687;47.790;7.322;2023-02-15T15:34:28;99974.28;;;10.39;69.05
13241;BME280;6687;47.790;7.322;2023-02-15T15:43:58;99976.25;;;10.52;66.73
13241;BME280;6687;47.790;7.322;2023-02-15T15:46:54;99977.09;;;10.51;72.52
13241;BME280;6687;47.790;7.322;2023-02-15T15:49:29;99974.44;;;10.47;76.52
13241;BME280;6687;47.790;7.322;2023-02-15T15:52:00;99981.25;;;10.43;74.36
13241;BME280;6687;47.790;7.322;2023-02-15T15:54:27;99983.56;;;10.29;69.90
13241;BME280;6687;47.790;7.322;2023-02-15T15:56:58;99992.31;;;10.33;70.61
13241;BME280;6687;47.790;7.322;2023-02-15T15:59:27;99991.63;;;10.43;72.87
13241;BME280;6687;47.790;7.322;2023-02-15T16:01:55;99987.88;;;10.29;70.50
13241;BME280;6687;47.790;7.322;2023-02-15T16:04:23;99987.28;;;10.41;69.86
13241;BME280;6687;47.790;7.322;2023-02-15T16:06:51;99995.75;;;10.33;70.10
13241;BME280;6687;47.790;7.322;2023-02-15T16:09:20;99999.03;;;10.26;67.73
13241;BME280;6687;47.790;7.322;2023-02-15T16:11:48;100004.78;;;10.11;69.08
13241;BME280;6687;47.790;7.322;2023-02-15T16:14:25;100006.22;;;9.97;68.20
13241;BME280;6687;47.790;7.322;2023-02-15T16:16:55;100001.31;;;10.12;71.40
13241;BME280;6687;47.790;7.322;2023-02-15T16:19:25;100008.06;;;10.04;72.51
13241;BME280;6687;47.790;7.322;2023-02-15T16:21:53;100007.91;;;9.95;69.11
13241;BME280;6687;47.790;7.322;2023-02-15T16:24:26;100005.47;;;10.03;70.38
13241;BME280;6687;47.790;7.322;2023-02-15T16:27:16;100011.41;;;9.99;70.86
13241;BME280;6687;47.790;7.322;2023-02-15T16:29:47;100018.94;;;9.88;69.84
13241;BME280;6687;47.790;7.322;2023-02-15T16:32:19;100018.59;;;9.71;71.04
13241;BME280;6687;47.790;7.322;2023-02-15T16:34:54;100027.84;;;9.61;69.12
13241;BME280;6687;47.790;7.322;2023-02-15T16:37:24;100024.72;;;9.38;71.44
13241;BME280;6687;47.790;7.322;2023-02-15T16:39:53;100027.22;;;9.35;71.44
13241;BME280;6687;47.790;7.322;2023-02-15T16:42:21;100032.53;;;9.40;71.90
13241;BME280;6687;47.790;7.322;2023-02-15T16:44:51;100038.22;;;9.61;74.09
13241;BME280;6687;47.790;7.322;2023-02-15T16:47:24;100038.38;;;9.32;73.86
13241;BME280;6687;47.790;7.322;2023-02-15T16:49:53;100046.56;;;9.51;74.96
13241;BME280;6687;47.790;7.322;2023-02-15T16:52:23;100046.81;;;8.90;71.57
13241;BME280;6687;47.790;7.322;2023-02-15T16:54:54;100054.84;;;8.68;71.89
13241;BME280;6687;47.790;7.322;2023-02-15T16:57:25;100066.19;;;8.74;71.51
13241;BME280;6687;47.790;7.322;2023-02-15T16:59:57;100065.06;;;8.65;71.80
13241;BME280;6687;47.790;7.322;2023-02-15T17:02:26;100074.97;;;8.49;71.95
13241;BME280;6687;47.790;7.322;2023-02-15T17:05:07;100076.72;;;8.50;72.72
13241;BME280;6687;47.790;7.322;2023-02-15T17:07:39;100083.38;;;8.42;72.14
13241;BME280;6687;47.790;7.322;2023-02-15T17:10:27;100080.94;;;8.47;71.57
13241;BME280;6687;47.790;7.322;2023-02-15T17:12:55;100086.47;;;8.30;72.05
13241;BME280;6687;47.790;7.322;2023-02-15T17:15:30;100087.78;;;8.17;72.55
13241;BME280;6687;47.790;7.322;2023-02-15T17:18:00;100083.88;;;8.30;71.79
13241;BME280;6687;47.790;7.322;2023-02-15T17:20:29;100090.13;;;8.39;71.52
13241;BME280;6687;47.790;7.322;2023-02-15T17:22:56;100087.25;;;8.28;71.28
13241;BME280;6687;47.790;7.322;2023-02-15T17:25:27;100088.00;;;8.24;71.26
13241;BME280;6687;47.790;7.322;2023-02-15T17:27:55;100089.63;;;7.93;72.69
13241;BME280;6687;47.790;7.322;2023-02-15T17:30:29;100080.41;;;8.01;72.31
13241;BME280;6687;47.790;7.322;2023-02-15T17:32:58;100078.19;;;8.12;72.46
13241;BME280;6687;47.790;7.322;2023-02-15T17:35:27;100087.16;;;7.96;73.22
13241;BME280;6687;47.790;7.322;2023-02-15T17:38:03;100089.69;;;7.94;72.84
13241;BME280;6687;47.790;7.322;2023-02-15T17:40:32;100099.53;;;8.06;72.61
13241;BME280;6687;47.790;7.322;2023-02-15T17:42:59;100104.78;;;7.55;73.88
13241;BME280;6687;47.790;7.322;2023-02-15T17:45:32;100105.84;;;7.34;75.09
13241;BME280;6687;47.790;7.322;2023-02-15T17:48:02;100111.59;;;7.53;74.94
13241;BME280;6687;47.790;7.322;2023-02-15T17:50:30;100108.16;;;7.52;73.98
13241;BME280;6687;47.790;7.322;2023-02-15T17:52:59;100107.78;;;7.42;74.94
13241;BME280;6687;47.790;7.322;2023-02-15T17:55:27;100110.78;;;7.28;74.85
13241;BME280;6687;47.790;7.322;2023-02-15T17:58:09;100111.41;;;7.47;74.77
13241;BME280;6687;47.790;7.322;2023-02-15T18:00:41;100105.66;;;7.55;74.23
13241;BME280;6687;47.790;7.322;2023-02-15T18:03:33;100112.19;;;7.44;74.13
13241;BME280;6687;47.790;7.322;2023-02-15T18:06:20;100113.25;;;7.51;75.43
13241;BME280;6687;47.790;7.322;2023-02-15T18:09:04;100118.41;;;7.51;75.95
13241;BME280;6687;47.790;7.322;2023-02-15T18:11:48;100125.81;;;7.16;75.05
13241;BME280;6687;47.790;7.322;2023-02-15T18:14:16;100120.25;;;6.80;75.81
13241;BME280;6687;47.790;7.322;2023-02-15T18:16:44;100125.47;;;6.57;76.77
13241;BME280;6687;47.790;7.322;2023-02-15T18:19:15;100125.63;;;6.62;77.09
13241;BME280;6687;47.790;7.322;2023-02-15T18:21:43;100115.53;;;6.68;77.24
13241;BME280;6687;47.790;7.322;2023-02-15T18:24:18;100118.75;;;6.61;76.56
13241;BME280;6687;47.790;7.322;2023-02-15T18:26:45;100117.47;;;6.49;76.83
13241;BME280;6687;47.790;7.322;2023-02-15T18:29:12;100118.88;;;6.41;77.02
13241;BME280;6687;47.790;7.322;2023-02-15T18:31:39;100126.25;;;6.32;77.92
13241;BME280;6687;47.790;7.322;2023-02-15T18:34:20;100123.06;;;6.16;78.61
13241;BME280;6687;47.790;7.322;2023-02-15T18:36:48;100132.56;;;6.17;78.86
13241;BME280;6687;47.790;7.322;2023-02-15T18:39:25;100120.31;;;6.34;78.65
13241;BME280;6687;47.790;7.322;2023-02-15T18:41:52;100123.97;;;6.40;77.89
13241;BME280;6687;47.790;7.322;2023-02-15T18:44:19;100117.38;;;6.24;77.87
13241;BME280;6687;47.790;7.322;2023-02-15T18:46:46;100117.22;;;6.21;78.16
13241;BME280;6687;47.790;7.322;2023-02-15T18:49:14;100118.78;;;6.15;78.05
13241;BME280;6687;47.790;7.322;2023-02-15T18:51:41;100117.53;;;6.06;78.38
13241;BME280;6687;47.790;7.322;2023-02-15T18:54:15;100111.16;;;5.96;78.60
13241;BME280;6687;47.790;7.322;2023-02-15T18:56:42;100109.50;;;5.98;78.78
13241;BME280;6687;47.790;7.322;2023-02-15T18:59:13;100107.50;;;5.91;78.69
13241;BME280;6687;47.790;7.322;2023-02-15T19:01:40;100117.34;;;5.80;79.14
13241;BME280;6687;47.790;7.322;2023-02-15T19:04:07;100101.84;;;5.78;79.26
13241;BME280;6687;47.790;7.322;2023-02-15T19:06:43;100100.22;;;5.81;78.89
13241;BME280;6687;47.790;7.322;2023-02-15T19:09:13;100115.16;;;5.68;79.02
13241;BME280;6687;47.790;7.322;2023-02-15T19:11:41;100109.53;;;5.56;79.89
13241;BME280;6687;47.790;7.322;2023-02-15T19:14:22;100101.38;;;5.66;79.14
13241;BME280;6687;47.790;7.322;2023-02-15T19:16:49;100103.25;;;5.70;78.68
13241;BME280;6687;47.790;7.322;2023-02-15T19:19:15;100102.31;;;5.68;78.68
13241;BME280;6687;47.790;7.322;2023-02-15T19:21:44;100095.06;;;5.81;78.51
13241;BME280;6687;47.790;7.322;2023-02-15T19:24:13;100099.88;;;5.71;78.30
13241;BME280;6687;47.790;7.322;2023-02-15T19:26:42;100088.56;;;5.45;78.56
13241;BME280;6687;47.790;7.322;2023-02-15T19:29:11;100090.09;;;5.21;79.40
13241;BME280;6687;47.790;7.322;2023-02-15T19:31:39;100100.13;;;5.14;79.74
13241;BME280;6687;47.790;7.322;2023-02-15T19:34:12;100099.97;;;4.90;80.77
13241;BME280;6687;47.790;7.322;2023-02-15T19:36:39;100108.84;;;4.77;81.78
13241;BME280;6687;47.790;7.322;2023-02-15T19:39:20;100109.78;;;4.80;82.40
13241;BME280;6687;47.790;7.322;2023-02-15T19:41:48;100103.13;;;5.04;81.59
13241;BME280;6687;47.790;7.322;2023-02-15T19:44:15;100113.22;;;4.80;81.88
13241;BME280;6687;47.790;7.322;2023-02-15T19:46:42;100110.91;;;4.67;82.93
13241;BME280;6687;47.790;7.322;2023-02-15T19:49:09;100096.38;;;4.87;82.04
13241;BME280;6687;47.790;7.322;2023-02-15T19:51:37;100104.16;;;4.88;81.83
13241;BME280;6687;47.790;7.322;2023-02-15T19:54:15;100098.06;;;4.86;81.50
13241;BME280;6687;47.790;7.322;2023-02-15T19:56:44;100096.88;;;4.78;81.66
13241;BME280;6687;47.790;7.322;2023-02-15T19:59:20;100089.41;;;5.04;80.85
13241;BME280;6687;47.790;7.322;2023-02-15T20:01:47;100094.41;;;4.81;81.13
13241;BME280;6687;47.790;7.322;2023-02-15T20:04:14;100098.91;;;4.46;82.12